createdAt,value
2022-10-17T00:00:41.304Z,10.41
2022-10-17T00:01:41.273Z,10.41
2022-10-17T00:02:41.277Z,10.41
2022-10-17T00:03:41.292Z,10.42
2022-10-17T00:04:41.225Z,10.41
2022-10-17T00:05:41.299Z,10.41
2022-10-17T00:06:41.205Z,10.42
2022-10-17T00:07:41.186Z,10.44
2022-10-17T00:08:41.165Z,10.47
2022-10-17T00:09:41.168Z,10.48
2022-10-17T00:10:41.183Z,10.51
2022-10-17T00:11:41.167Z,10.51
2022-10-17T00:12:41.175Z,10.51
2022-10-17T00:13:41.116Z,10.51
2022-10-17T00:14:41.104Z,10.53
2022-10-17T00:15:41.103Z,10.52
2022-10-17T00:16:41.103Z,10.53
2022-10-17T00:17:41.095Z,10.52
2022-10-17T00:18:41.076Z,10.51
2022-10-17T00:19:41.093Z,10.48
2022-10-17T00:20:41.056Z,10.45
2022-10-17T00:21:41.126Z,10.45
2022-10-17T00:22:41.031Z,10.45
2022-10-17T00:23:41.093Z,10.47
2022-10-17T00:24:40.989Z,10.42
2022-10-17T00:25:41.032Z,10.42
2022-10-17T00:26:40.946Z,10.42
2022-10-17T00:27:40.972Z,10.42
2022-10-17T00:28:41.014Z,10.42
2022-10-17T00:29:40.925Z,10.41
2022-10-17T00:30:40.947Z,10.41
2022-10-17T00:31:40.968Z,10.44
2022-10-17T00:32:40.932Z,10.44
2022-10-17T00:33:40.895Z,10.44
2022-10-17T00:34:40.886Z,10.42
2022-10-17T00:35:40.985Z,10.44
2022-10-17T00:36:40.847Z,10.42
2022-10-17T00:37:40.875Z,10.41
2022-10-17T00:38:40.835Z,10.42
2022-10-17T00:39:40.818Z,10.44
2022-10-17T00:40:40.836Z,10.45
2022-10-17T00:41:40.803Z,10.47
2022-10-17T00:42:40.824Z,10.48
2022-10-17T00:43:40.835Z,10.48
2022-10-17T00:44:40.910Z,10.51
2022-10-17T00:45:40.755Z,10.51
2022-10-17T00:46:40.758Z,10.52
2022-10-17T00:47:40.777Z,10.53
2022-10-17T00:48:40.747Z,10.53
2022-10-17T00:49:40.766Z,10.56
2022-10-17T00:50:40.678Z,10.59
2022-10-17T00:51:40.844Z,10.66
2022-10-17T00:52:40.692Z,10.68
2022-10-17T00:53:40.694Z,10.74
2022-10-17T00:54:40.694Z,10.78
2022-10-17T00:55:40.656Z,10.79
2022-10-17T00:56:40.648Z,10.82
2022-10-17T00:57:40.615Z,10.82
2022-10-17T00:58:40.754Z,10.82
2022-10-17T00:59:40.625Z,10.82
2022-10-17T01:00:40.604Z,10.84
2022-10-17T01:01:40.600Z,10.91
2022-10-17T01:02:40.806Z,10.94
2022-10-17T01:03:40.598Z,10.97
2022-10-17T01:04:40.654Z,10.96
2022-10-17T01:05:41.014Z,10.96
2022-10-17T01:06:40.571Z,10.96
2022-10-17T01:07:40.525Z,10.94
2022-10-17T01:08:40.466Z,10.92
2022-10-17T01:09:40.477Z,10.92
2022-10-17T01:10:40.540Z,10.96
2022-10-17T01:11:40.515Z,10.97
2022-10-17T01:12:40.548Z,10.97
2022-10-17T01:13:40.469Z,10.97
2022-10-17T01:14:40.427Z,10.97
2022-10-17T01:15:40.421Z,10.99
2022-10-17T01:16:40.458Z,10.99
2022-10-17T01:17:40.417Z,10.99
2022-10-17T01:18:40.419Z,10.96
2022-10-17T01:19:40.398Z,10.94
2022-10-17T01:20:40.370Z,10.96
2022-10-17T01:21:40.345Z,10.96
2022-10-17T01:22:40.381Z,10.96
2022-10-17T01:23:40.315Z,10.96
2022-10-17T01:24:40.357Z,10.99
2022-10-17T01:25:40.641Z,11.00
2022-10-17T01:26:40.734Z,11.02
2022-10-17T01:27:40.264Z,11.02
2022-10-17T01:28:40.405Z,11.02
2022-10-17T01:29:40.255Z,11.02
2022-10-17T01:30:40.283Z,11.03
2022-10-17T01:31:40.236Z,11.04
2022-10-17T01:32:40.261Z,11.06
2022-10-17T01:33:40.234Z,11.09
2022-10-17T01:34:40.260Z,11.11
2022-10-17T01:35:40.176Z,11.11
2022-10-17T01:36:40.196Z,11.11
2022-10-17T01:37:40.215Z,11.11
2022-10-17T01:38:40.185Z,11.11
2022-10-17T01:39:43.887Z,11.09
2022-10-17T01:40:41.209Z,11.09
2022-10-17T01:41:40.115Z,11.09
2022-10-17T01:42:40.187Z,11.07
2022-10-17T01:43:40.075Z,11.04
2022-10-17T01:44:40.125Z,11.00
2022-10-17T01:45:40.874Z,11.00
2022-10-17T01:46:41.533Z,10.99
2022-10-17T01:47:40.034Z,10.97
2022-10-17T01:48:40.024Z,10.99
2022-10-17T01:49:40.039Z,10.99
2022-10-17T01:50:40.072Z,10.99
2022-10-17T01:51:40.082Z,10.94
2022-10-17T01:52:39.984Z,10.92
2022-10-17T01:53:40.317Z,10.89
2022-10-17T01:54:39.957Z,10.89
2022-10-17T01:55:39.985Z,10.88
2022-10-17T01:56:39.964Z,10.86
2022-10-17T01:57:39.913Z,10.86
2022-10-17T01:58:39.923Z,10.86
2022-10-17T01:59:39.950Z,10.85
2022-10-17T02:00:39.937Z,10.84
2022-10-17T02:01:39.930Z,10.81
2022-10-17T02:02:39.873Z,10.79
2022-10-17T02:03:39.868Z,10.76
2022-10-17T02:04:39.885Z,10.73
2022-10-17T02:05:39.898Z,10.73
2022-10-17T02:06:39.901Z,10.68
2022-10-17T02:07:39.894Z,10.66
2022-10-17T02:08:39.826Z,10.63
2022-10-17T02:09:39.827Z,10.63
2022-10-17T02:10:39.801Z,10.61
2022-10-17T02:11:39.754Z,10.63
2022-10-17T02:12:39.744Z,10.63
2022-10-17T02:13:39.798Z,10.63
2022-10-17T02:14:39.746Z,10.63
2022-10-17T02:15:39.783Z,10.60
2022-10-17T02:16:39.757Z,10.56
2022-10-17T02:17:39.768Z,10.55
2022-10-17T02:18:39.726Z,10.52
2022-10-17T02:19:39.752Z,10.53
2022-10-17T02:20:39.667Z,10.55
2022-10-17T02:21:39.673Z,10.52
2022-10-17T02:22:39.632Z,10.51
2022-10-17T02:23:39.731Z,10.47
2022-10-17T02:24:39.645Z,10.44
2022-10-17T02:25:39.587Z,10.44
2022-10-17T02:26:39.814Z,10.44
2022-10-17T02:27:41.053Z,10.44
2022-10-17T02:28:39.636Z,10.42
2022-10-17T02:29:39.730Z,10.41
2022-10-17T02:30:39.610Z,10.41
2022-10-17T02:31:39.565Z,10.38
2022-10-17T02:32:39.547Z,10.38
2022-10-17T02:33:39.523Z,10.38
2022-10-17T02:34:39.525Z,10.40
2022-10-17T02:35:39.544Z,10.40
2022-10-17T02:36:39.557Z,10.40
2022-10-17T02:37:39.477Z,10.36
2022-10-17T02:38:39.476Z,10.33
2022-10-17T02:39:39.517Z,10.33
2022-10-17T02:40:39.479Z,10.32
2022-10-17T02:41:39.547Z,10.30
2022-10-17T02:42:39.398Z,10.26
2022-10-17T02:43:39.488Z,10.23
2022-10-17T02:44:39.463Z,10.22
2022-10-17T02:45:39.386Z,10.23
2022-10-17T02:46:39.456Z,10.20
2022-10-17T02:47:39.643Z,10.17
2022-10-17T02:48:39.356Z,10.14
2022-10-17T02:49:39.352Z,10.12
2022-10-17T02:50:39.325Z,10.12
2022-10-17T02:51:39.330Z,10.11
2022-10-17T02:52:39.471Z,10.09
2022-10-17T02:53:39.294Z,10.09
2022-10-17T02:54:39.262Z,10.09
2022-10-17T02:55:39.264Z,10.11
2022-10-17T02:56:39.272Z,10.09
2022-10-17T02:57:39.223Z,10.09
2022-10-17T02:58:39.371Z,10.11
2022-10-17T02:59:39.194Z,10.08
2022-10-17T03:00:39.261Z,10.08
2022-10-17T03:01:39.258Z,10.07
2022-10-17T03:02:39.238Z,10.05
2022-10-17T03:03:39.181Z,10.02
2022-10-17T03:04:39.185Z,10.02
2022-10-17T03:05:39.144Z,9.99
2022-10-17T03:06:39.173Z,9.96
2022-10-17T03:07:39.204Z,9.93
2022-10-17T03:08:39.135Z,9.91
2022-10-17T03:09:39.124Z,9.90
2022-10-17T03:10:39.125Z,9.90
2022-10-17T03:11:39.082Z,9.91
2022-10-17T03:12:39.052Z,9.94
2022-10-17T03:13:39.946Z,9.96
2022-10-17T03:14:39.075Z,9.97
2022-10-17T03:15:39.021Z,9.97
2022-10-17T03:16:39.018Z,9.97
2022-10-17T03:17:39.052Z,9.97
2022-10-17T03:18:38.985Z,9.97
2022-10-17T03:19:38.953Z,9.97
2022-10-17T03:20:39.074Z,9.97
2022-10-17T03:21:38.956Z,9.97
2022-10-17T03:22:39.001Z,9.97
2022-10-17T03:23:38.933Z,9.99
2022-10-17T03:24:38.930Z,9.99
2022-10-17T03:25:38.919Z,9.97
2022-10-17T03:26:39.014Z,10.01
2022-10-17T03:27:38.894Z,10.02
2022-10-17T03:28:39.115Z,10.02
2022-10-17T03:29:38.833Z,10.02
2022-10-17T03:30:38.854Z,10.04
2022-10-17T03:31:38.960Z,10.05
2022-10-17T03:32:38.853Z,10.04
2022-10-17T03:33:38.801Z,10.04
2022-10-17T03:34:38.806Z,10.04
2022-10-17T03:35:38.870Z,10.02
2022-10-17T03:36:38.795Z,10.01
2022-10-17T03:37:38.782Z,10.01
2022-10-17T03:38:38.771Z,9.96
2022-10-17T03:39:38.731Z,9.96
2022-10-17T03:40:38.723Z,9.93
2022-10-17T03:41:38.712Z,9.91
2022-10-17T03:42:38.875Z,9.93
2022-10-17T03:43:38.724Z,9.93
2022-10-17T03:44:38.736Z,9.91
2022-10-17T03:45:38.662Z,9.93
2022-10-17T03:46:39.357Z,9.93
2022-10-17T03:47:38.723Z,9.94
2022-10-17T03:48:38.742Z,9.94
2022-10-17T03:49:38.656Z,9.93
2022-10-17T03:50:38.652Z,9.91
2022-10-17T03:51:38.612Z,9.91
2022-10-17T03:52:38.617Z,9.89
2022-10-17T03:53:38.612Z,9.87
2022-10-17T03:54:38.631Z,9.87
2022-10-17T03:55:38.569Z,9.86
2022-10-17T03:56:38.591Z,9.87
2022-10-17T03:57:41.089Z,9.84
2022-10-17T03:58:38.521Z,9.84
2022-10-17T03:59:38.502Z,9.86
2022-10-17T04:00:38.580Z,9.87
2022-10-17T04:01:38.589Z,9.86
2022-10-17T04:02:38.583Z,9.86
2022-10-17T04:03:38.464Z,9.86
2022-10-17T04:04:38.558Z,9.86
2022-10-17T04:05:38.461Z,9.86
2022-10-17T04:06:38.462Z,9.87
2022-10-17T04:07:38.481Z,9.89
2022-10-17T04:08:38.487Z,9.89
2022-10-17T04:09:38.391Z,9.87
2022-10-17T04:10:38.396Z,9.87
2022-10-17T04:11:38.362Z,9.87
2022-10-17T04:12:38.414Z,9.87
2022-10-17T04:13:38.400Z,9.89
2022-10-17T04:14:38.339Z,9.89
2022-10-17T04:15:38.313Z,9.87
2022-10-17T04:16:38.311Z,9.86
2022-10-17T04:17:38.461Z,9.81
2022-10-17T04:18:38.471Z,9.79
2022-10-17T04:19:38.305Z,9.79
2022-10-17T04:20:38.274Z,9.78
2022-10-17T04:21:38.262Z,9.75
2022-10-17T04:22:38.287Z,9.74
2022-10-17T04:23:38.236Z,9.74
2022-10-17T04:24:38.271Z,9.72
2022-10-17T04:25:38.231Z,9.72
2022-10-17T04:26:38.219Z,9.72
2022-10-17T04:27:38.181Z,9.74
2022-10-17T04:29:38.213Z,9.76
2022-10-17T04:30:41.141Z,9.76
2022-10-17T04:31:39.139Z,9.78
2022-10-17T04:32:38.137Z,9.79
2022-10-17T04:33:38.120Z,9.79
2022-10-17T04:34:38.137Z,9.79
2022-10-17T04:35:38.123Z,9.79
2022-10-17T04:36:38.135Z,9.76
2022-10-17T04:37:38.103Z,9.75
2022-10-17T04:38:38.100Z,9.75
2022-10-17T04:39:38.100Z,9.74
2022-10-17T04:40:38.070Z,9.74
2022-10-17T04:41:38.031Z,9.78
2022-10-17T04:42:38.035Z,9.81
2022-10-17T04:43:37.993Z,9.81
2022-10-17T04:44:38.010Z,9.81
2022-10-17T04:45:37.965Z,9.79
2022-10-17T04:46:37.989Z,9.76
2022-10-17T04:47:38.036Z,9.76
2022-10-17T04:48:37.962Z,9.74
2022-10-17T04:49:38.004Z,9.75
2022-10-17T04:50:37.970Z,9.76
2022-10-17T04:51:37.929Z,9.79
2022-10-17T04:52:38.022Z,9.76
2022-10-17T04:53:37.890Z,9.75
2022-10-17T04:54:37.884Z,9.74
2022-10-17T04:55:37.911Z,9.74
2022-10-17T04:56:37.883Z,9.71
2022-10-17T04:57:37.841Z,9.72
2022-10-17T04:58:37.831Z,9.69
2022-10-17T04:59:37.839Z,9.69
2022-10-17T05:00:37.873Z,9.71
2022-10-17T05:01:37.821Z,9.68
2022-10-17T05:02:37.820Z,9.68
2022-10-17T05:03:37.799Z,9.66
2022-10-17T05:04:37.812Z,9.65
2022-10-17T05:05:37.739Z,9.64
2022-10-17T05:06:37.777Z,9.61
2022-10-17T05:07:37.761Z,9.58
2022-10-17T05:08:37.720Z,9.61
2022-10-17T05:09:37.721Z,9.61
2022-10-17T05:10:37.959Z,9.61
2022-10-17T05:11:37.704Z,9.60
2022-10-17T05:12:37.689Z,9.61
2022-10-17T05:13:37.697Z,9.64
2022-10-17T05:14:37.688Z,9.65
2022-10-17T05:15:37.672Z,9.65
2022-10-17T05:16:37.660Z,9.65
2022-10-17T05:17:37.630Z,9.68
2022-10-17T05:18:37.619Z,9.68
2022-10-17T05:19:37.639Z,9.72
2022-10-17T05:20:37.601Z,9.74
2022-10-17T05:21:37.651Z,9.74
2022-10-17T05:22:39.788Z,9.71
2022-10-17T05:23:37.557Z,9.66
2022-10-17T05:24:37.567Z,9.64
2022-10-17T05:25:37.587Z,9.60
2022-10-17T05:26:37.509Z,9.60
2022-10-17T05:27:37.557Z,9.57
2022-10-17T05:28:37.521Z,9.57
2022-10-17T05:29:37.454Z,9.57
2022-10-17T05:30:37.739Z,9.64
2022-10-17T05:31:37.502Z,9.66
2022-10-17T05:32:37.459Z,9.68
2022-10-17T05:33:37.416Z,9.66
2022-10-17T05:34:37.431Z,9.65
2022-10-17T05:35:37.440Z,9.60
2022-10-17T05:36:37.400Z,9.57
2022-10-17T05:37:37.416Z,9.53
2022-10-17T05:38:37.409Z,9.50
2022-10-17T05:39:37.486Z,9.47
2022-10-17T05:40:37.392Z,9.47
2022-10-17T05:41:37.380Z,9.43
2022-10-17T05:42:37.395Z,9.43
2022-10-17T05:43:37.369Z,9.43
2022-10-17T05:44:37.307Z,9.50
2022-10-17T05:45:37.320Z,9.51
2022-10-17T05:46:37.288Z,9.53
2022-10-17T05:47:37.269Z,9.51
2022-10-17T05:48:37.324Z,9.53
2022-10-17T05:49:46.317Z,9.53
2022-10-17T05:50:38.230Z,9.54
2022-10-17T05:51:37.236Z,9.54
2022-10-17T05:52:37.232Z,9.54
2022-10-17T05:53:37.241Z,9.56
2022-10-17T05:54:37.177Z,9.54
2022-10-17T05:55:37.249Z,9.54
2022-10-17T05:56:37.210Z,9.54
2022-10-17T05:57:37.167Z,9.58
2022-10-17T05:58:49.824Z,9.58
2022-10-17T05:59:38.149Z,9.58
2022-10-17T06:00:37.131Z,9.61
2022-10-17T06:01:37.176Z,9.65
2022-10-17T06:02:37.078Z,9.68
2022-10-17T06:03:37.089Z,9.68
2022-10-17T06:04:37.075Z,9.66
2022-10-17T06:05:37.086Z,9.66
2022-10-17T06:06:37.039Z,9.69
2022-10-17T06:07:37.065Z,9.72
2022-10-17T06:08:37.008Z,9.74
2022-10-17T06:09:37.056Z,9.74
2022-10-17T06:10:37.292Z,9.72
2022-10-17T06:11:37.089Z,9.72
2022-10-17T06:12:37.057Z,9.72
2022-10-17T06:13:37.000Z,9.72
2022-10-17T06:14:36.939Z,9.75
2022-10-17T06:15:36.958Z,9.76
2022-10-17T06:16:36.928Z,9.79
2022-10-17T06:17:36.946Z,9.83
2022-10-17T06:18:36.950Z,9.83
2022-10-17T06:19:36.899Z,9.84
2022-10-17T06:20:36.867Z,9.87
2022-10-17T06:21:36.875Z,9.89
2022-10-17T06:22:36.957Z,9.91
2022-10-17T06:23:36.856Z,9.93
2022-10-17T06:24:36.838Z,9.96
2022-10-17T06:25:36.837Z,10.01
2022-10-17T06:26:36.846Z,10.04
2022-10-17T06:27:36.810Z,10.09
2022-10-17T06:28:36.816Z,10.17
2022-10-17T06:29:36.792Z,10.22
2022-10-17T06:30:36.879Z,10.26
2022-10-17T06:31:36.823Z,10.27
2022-10-17T06:32:36.787Z,10.32
2022-10-17T06:33:36.748Z,10.36
2022-10-17T06:34:36.767Z,10.38
2022-10-17T06:35:36.729Z,10.40
2022-10-17T06:36:36.702Z,10.42
2022-10-17T06:37:37.172Z,10.41
2022-10-17T06:38:36.680Z,10.44
2022-10-17T06:39:36.681Z,10.47
2022-10-17T06:40:36.649Z,10.48
2022-10-17T06:41:36.647Z,10.53
2022-10-17T06:42:36.647Z,10.56
2022-10-17T06:43:36.696Z,10.61
2022-10-17T06:44:36.599Z,10.64
2022-10-17T06:45:36.609Z,10.67
2022-10-17T06:46:36.616Z,10.71
2022-10-17T06:47:36.597Z,10.74
2022-10-17T06:48:36.618Z,10.79
2022-10-17T06:49:36.577Z,10.84
2022-10-17T06:50:36.596Z,10.85
2022-10-17T06:51:36.546Z,10.92
2022-10-17T06:52:36.559Z,10.97
2022-10-17T06:53:36.557Z,11.03
2022-10-17T06:54:36.508Z,11.07
2022-10-17T06:55:36.537Z,11.15
2022-10-17T06:56:36.560Z,11.19
2022-10-17T06:57:36.516Z,11.22
2022-10-17T06:58:36.578Z,11.28
2022-10-17T06:59:36.487Z,11.32
2022-10-17T07:00:36.514Z,11.33
2022-10-17T07:01:37.282Z,11.36
2022-10-17T07:02:36.409Z,11.39
2022-10-17T07:03:36.417Z,11.42
2022-10-17T07:04:36.490Z,11.43
2022-10-17T07:05:36.404Z,11.44
2022-10-17T07:06:36.391Z,11.51
2022-10-17T07:07:40.019Z,11.54
2022-10-17T07:08:37.392Z,11.58
2022-10-17T07:09:36.338Z,11.65
2022-10-17T07:10:36.432Z,11.72
2022-10-17T07:11:36.317Z,11.76
2022-10-17T07:12:36.708Z,11.83
2022-10-17T07:13:39.169Z,11.88
2022-10-17T07:14:36.317Z,11.94
2022-10-17T07:15:36.270Z,11.99
2022-10-17T07:16:36.315Z,12.04
2022-10-17T07:17:36.245Z,12.12
2022-10-17T07:18:36.221Z,12.17
2022-10-17T07:19:36.225Z,12.23
2022-10-17T07:20:36.206Z,12.34
2022-10-17T07:21:39.046Z,12.41
2022-10-17T07:22:36.194Z,12.50
2022-10-17T07:23:36.189Z,12.59
2022-10-17T07:24:36.192Z,12.67
2022-10-17T07:25:39.263Z,12.70
2022-10-17T07:26:36.194Z,12.77
2022-10-17T07:27:36.154Z,12.85
2022-10-17T07:28:36.196Z,12.90
2022-10-17T07:29:36.105Z,12.96
2022-10-17T07:30:36.072Z,13.05
2022-10-17T07:31:36.103Z,13.15
2022-10-17T07:32:36.076Z,13.26
2022-10-17T07:33:36.236Z,13.36
2022-10-17T07:34:36.026Z,13.44
2022-10-17T07:35:36.165Z,13.49
2022-10-17T07:36:36.032Z,13.54
2022-10-17T07:37:36.037Z,13.55
2022-10-17T07:38:35.994Z,13.63
2022-10-17T07:39:36.027Z,13.70
2022-10-17T07:40:36.058Z,13.79
2022-10-17T07:41:36.007Z,13.88
2022-10-17T07:42:36.062Z,13.97
2022-10-17T07:43:36.096Z,14.07
2022-10-17T07:44:35.930Z,14.15
2022-10-17T07:45:35.941Z,14.25
2022-10-17T07:46:35.914Z,14.36
2022-10-17T07:47:35.911Z,14.50
2022-10-17T07:48:35.907Z,14.58
2022-10-17T07:49:35.925Z,14.69
2022-10-17T07:50:35.897Z,14.81
2022-10-17T07:51:35.939Z,14.91
2022-10-17T07:52:35.859Z,14.99
2022-10-17T07:53:36.556Z,15.10
2022-10-17T07:54:36.163Z,15.20
2022-10-17T07:55:35.826Z,15.31
2022-10-17T07:56:35.780Z,15.39
2022-10-17T07:57:35.836Z,15.47
2022-10-17T07:58:35.823Z,15.53
2022-10-17T07:59:35.813Z,15.59
2022-10-17T08:00:35.796Z,15.65
2022-10-17T08:01:35.743Z,15.72
2022-10-17T08:02:35.738Z,15.78
2022-10-17T08:03:35.746Z,15.84
2022-10-17T08:04:35.710Z,15.89
2022-10-17T08:05:36.081Z,15.94
2022-10-17T08:06:35.689Z,16.01
2022-10-17T08:07:35.709Z,16.04
2022-10-17T08:08:35.682Z,16.09
2022-10-17T08:09:35.688Z,16.14
2022-10-17T08:10:35.659Z,16.20
2022-10-17T08:11:35.645Z,16.21
2022-10-17T08:12:35.607Z,16.24
2022-10-17T08:13:36.061Z,16.27
2022-10-17T08:14:35.991Z,16.33
2022-10-17T08:15:35.605Z,16.41
2022-10-17T08:16:35.566Z,16.46
2022-10-17T08:17:35.548Z,16.52
2022-10-17T08:18:35.541Z,16.57
2022-10-17T08:19:35.625Z,16.61
2022-10-17T08:20:35.549Z,16.64
2022-10-17T08:21:35.559Z,16.68
2022-10-17T08:22:35.489Z,16.73
2022-10-17T08:23:35.517Z,16.81
2022-10-17T08:24:35.475Z,16.85
2022-10-17T08:25:35.468Z,16.89
2022-10-17T08:26:38.010Z,16.96
2022-10-17T08:27:36.533Z,17.00
2022-10-17T08:28:35.556Z,17.03
2022-10-17T08:29:35.480Z,17.07
2022-10-17T08:30:35.410Z,17.12
2022-10-17T08:31:36.267Z,17.14
2022-10-17T08:32:35.396Z,17.15
2022-10-17T08:33:36.117Z,17.19
2022-10-17T08:34:35.385Z,17.23
2022-10-17T08:35:35.357Z,17.25
2022-10-17T08:36:35.338Z,17.28
2022-10-17T08:37:35.349Z,17.31
2022-10-17T08:38:36.039Z,17.34
2022-10-17T08:39:35.320Z,17.38
2022-10-17T08:40:35.296Z,17.44
2022-10-17T08:41:35.318Z,17.48
2022-10-17T08:42:35.296Z,17.55
2022-10-17T08:43:35.716Z,17.62
2022-10-17T08:44:35.257Z,17.66
2022-10-17T08:45:35.247Z,17.74
2022-10-17T08:46:35.217Z,17.75
2022-10-17T08:47:35.297Z,17.77
2022-10-17T08:48:35.225Z,17.82
2022-10-17T08:49:35.207Z,17.92
2022-10-17T08:50:35.174Z,18.00
2022-10-17T08:51:35.168Z,18.10
2022-10-17T08:52:35.179Z,18.17
2022-10-17T08:53:35.158Z,18.27
2022-10-17T08:54:35.165Z,18.30
2022-10-17T08:55:35.217Z,18.39
2022-10-17T08:56:47.998Z,18.45
2022-10-17T08:57:36.120Z,18.50
2022-10-17T08:58:35.078Z,18.60
2022-10-17T08:59:35.196Z,18.65
2022-10-17T09:00:35.129Z,18.70
2022-10-17T09:01:35.058Z,18.75
2022-10-17T09:02:35.093Z,18.75
2022-10-17T09:03:35.060Z,18.84
2022-10-17T09:04:35.035Z,18.90
2022-10-17T09:05:35.037Z,18.94
2022-10-17T09:06:35.038Z,18.95
2022-10-17T09:07:35.038Z,18.99
2022-10-17T09:08:35.051Z,19.00
2022-10-17T09:09:35.003Z,19.06
2022-10-17T09:10:34.996Z,19.07
2022-10-17T09:11:34.948Z,19.08
2022-10-17T09:12:34.974Z,19.16
2022-10-17T09:14:34.958Z,19.31
2022-10-17T09:15:35.124Z,19.40
2022-10-17T09:16:35.289Z,19.46
2022-10-17T09:17:35.221Z,19.50
2022-10-17T09:18:34.871Z,19.56
2022-10-17T09:19:34.901Z,19.62
2022-10-17T09:20:34.849Z,19.62
2022-10-17T09:21:34.849Z,19.62
2022-10-17T09:22:34.862Z,19.63
2022-10-17T09:23:36.167Z,19.68
2022-10-17T09:24:34.798Z,19.69
2022-10-17T09:25:34.801Z,19.74
2022-10-17T09:26:34.859Z,19.83
2022-10-17T09:27:34.759Z,19.87
2022-10-17T09:28:34.856Z,19.95
2022-10-17T09:29:39.001Z,19.98
2022-10-17T09:30:50.787Z,20.02
2022-10-17T09:31:35.745Z,20.03
2022-10-17T09:32:34.982Z,20.02
2022-10-17T09:33:49.814Z,20.03
2022-10-17T09:34:35.706Z,20.05
2022-10-17T09:35:35.011Z,20.08
2022-10-17T09:36:35.038Z,20.05
2022-10-17T09:37:34.653Z,20.02
2022-10-17T09:38:34.663Z,20.01
2022-10-17T09:39:34.660Z,19.95
2022-10-17T09:40:34.590Z,19.88
2022-10-17T09:41:50.017Z,19.92
2022-10-17T09:42:35.564Z,19.95
2022-10-17T09:43:34.600Z,20.02
2022-10-17T09:44:34.550Z,20.11
2022-10-17T09:45:34.551Z,20.20
2022-10-17T09:46:34.514Z,20.24
2022-10-17T09:47:34.541Z,20.24
2022-10-17T09:48:34.511Z,20.28
2022-10-17T09:49:34.500Z,20.33
2022-10-17T09:50:34.901Z,20.41
2022-10-17T09:51:34.482Z,20.50
2022-10-17T09:52:34.928Z,20.57
2022-10-17T09:53:34.452Z,20.61
2022-10-17T09:54:34.433Z,20.67
2022-10-17T09:55:34.698Z,20.69
2022-10-17T09:56:34.740Z,20.67
2022-10-17T09:57:34.749Z,20.72
2022-10-17T09:58:34.442Z,20.79
2022-10-17T09:59:34.417Z,20.79
2022-10-17T10:00:34.419Z,20.82
2022-10-17T10:01:34.373Z,20.85
2022-10-17T10:02:34.370Z,20.79
2022-10-17T10:03:34.366Z,20.76
2022-10-17T10:04:41.563Z,20.74
2022-10-17T10:05:35.313Z,20.79
2022-10-17T10:06:34.358Z,20.82
2022-10-17T10:07:34.302Z,20.85
2022-10-17T10:08:34.292Z,20.85
2022-10-17T10:09:36.814Z,20.77
2022-10-17T10:10:34.546Z,20.73
2022-10-17T10:15:33.197Z,20.62
2022-10-17T10:16:32.844Z,20.54
2022-10-17T10:17:32.829Z,20.52
2022-10-17T10:18:32.938Z,20.58
2022-10-17T10:19:32.805Z,20.62
2022-10-17T10:20:32.769Z,20.70
2022-10-17T10:21:33.423Z,20.76
2022-10-17T10:22:33.022Z,20.70
2022-10-17T10:23:32.750Z,20.64
2022-10-17T10:24:32.748Z,20.61
2022-10-17T10:25:32.720Z,20.58
2022-10-17T10:26:32.709Z,20.54
2022-10-17T10:28:32.767Z,20.64
2022-10-17T10:29:32.669Z,20.73
2022-10-17T10:30:36.153Z,20.80
2022-10-17T10:31:33.651Z,20.89
2022-10-17T10:32:32.772Z,20.99
2022-10-17T10:33:32.619Z,21.10
2022-10-17T10:34:32.618Z,21.21
2022-10-17T10:35:32.612Z,21.22
2022-10-17T10:36:32.633Z,21.31
2022-10-17T10:37:33.035Z,21.37
2022-10-17T10:38:32.590Z,21.47
2022-10-17T10:39:32.586Z,21.58
2022-10-17T10:40:32.551Z,21.64
2022-10-17T10:41:32.540Z,21.71
2022-10-17T10:42:32.702Z,21.72
2022-10-17T10:43:32.523Z,21.77
2022-10-17T10:44:32.522Z,21.82
2022-10-17T10:45:48.926Z,21.84
2022-10-17T10:46:33.520Z,21.86
2022-10-17T10:47:32.891Z,21.83
2022-10-17T10:48:32.460Z,21.79
2022-10-17T10:49:32.458Z,21.71
2022-10-17T10:50:32.466Z,21.64
2022-10-17T10:51:32.414Z,21.58
2022-10-17T10:52:32.478Z,21.54
2022-10-17T10:53:35.250Z,21.56
2022-10-17T10:54:32.430Z,21.54
2022-10-17T10:55:41.016Z,21.62
2022-10-17T10:56:32.381Z,21.65
2022-10-17T10:57:32.593Z,21.69
2022-10-17T10:58:33.201Z,21.80
2022-10-17T10:59:32.360Z,21.88
2022-10-17T11:00:32.373Z,21.98
2022-10-17T11:01:32.304Z,22.03
2022-10-17T11:02:32.327Z,22.05
2022-10-17T11:03:32.323Z,22.18
2022-10-17T11:04:32.297Z,22.25
2022-10-17T11:05:32.267Z,22.14
2022-10-17T11:06:32.274Z,22.05
2022-10-17T11:07:32.524Z,22.02
2022-10-17T11:08:32.260Z,22.02
2022-10-17T11:09:33.780Z,22.03
2022-10-17T11:10:32.213Z,22.03
2022-10-17T11:11:32.193Z,21.96
2022-10-17T11:12:32.224Z,21.94
2022-10-17T11:13:32.165Z,21.94
2022-10-17T11:14:32.182Z,21.99
2022-10-17T11:15:32.314Z,21.99
2022-10-17T11:16:32.144Z,22.06
2022-10-17T11:17:32.545Z,22.15
2022-10-17T11:18:32.133Z,22.14
2022-10-17T11:19:32.165Z,22.20
2022-10-17T11:20:32.858Z,22.27
2022-10-17T11:21:32.208Z,22.36
2022-10-17T11:22:32.665Z,22.45
2022-10-17T11:23:32.054Z,22.55
2022-10-17T11:24:32.056Z,22.62
2022-10-17T11:25:32.049Z,22.64
2022-10-17T11:26:32.042Z,22.67
2022-10-17T11:27:32.006Z,22.75
2022-10-17T11:28:32.079Z,22.79
2022-10-17T11:29:32.004Z,22.83
2022-10-17T11:30:32.013Z,22.82
2022-10-17T11:31:31.994Z,22.85
2022-10-17T11:32:32.316Z,22.86
2022-10-17T11:33:31.937Z,22.86
2022-10-17T11:34:31.936Z,22.86
2022-10-17T11:35:31.917Z,22.79
2022-10-17T11:36:31.927Z,22.75
2022-10-17T11:37:31.896Z,22.68
2022-10-17T11:38:31.897Z,22.62
2022-10-17T11:39:32.646Z,22.58
2022-10-17T11:40:32.745Z,22.43
2022-10-17T11:41:31.856Z,22.31
2022-10-17T11:42:33.053Z,22.30
2022-10-17T11:43:31.830Z,22.24
2022-10-17T11:44:31.844Z,22.24
2022-10-17T11:45:31.807Z,22.27
2022-10-17T11:46:31.808Z,22.28
2022-10-17T11:47:31.777Z,22.20
2022-10-17T11:48:31.999Z,22.12
2022-10-17T11:49:34.000Z,22.15
2022-10-17T11:52:51.865Z,21.94
2022-10-17T11:53:32.708Z,21.88
2022-10-17T11:54:31.729Z,21.80
2022-10-17T11:55:31.694Z,21.77
2022-10-17T11:56:31.777Z,21.79
2022-10-17T11:57:31.706Z,21.86
2022-10-17T11:58:31.672Z,21.91
2022-10-17T11:59:32.499Z,21.94
2022-10-17T12:00:32.491Z,21.99
2022-10-17T12:01:32.529Z,22.05
2022-10-17T12:02:32.118Z,22.09
2022-10-17T12:03:31.791Z,22.14
2022-10-17T12:04:31.621Z,22.17
2022-10-17T12:05:31.586Z,22.22
2022-10-17T12:06:31.605Z,22.27
2022-10-17T12:07:31.905Z,22.28
2022-10-17T12:08:31.586Z,22.35
2022-10-17T12:09:31.529Z,22.37
2022-10-17T12:10:31.529Z,22.40
2022-10-17T12:11:31.523Z,22.43
2022-10-17T12:12:32.178Z,22.46
2022-10-17T12:13:31.481Z,22.52
2022-10-17T12:14:31.499Z,22.64
2022-10-17T12:15:31.475Z,22.73
2022-10-17T12:16:31.502Z,22.88
2022-10-17T12:17:32.036Z,22.98
2022-10-17T12:18:31.441Z,23.10
2022-10-17T12:19:31.408Z,23.23
2022-10-17T12:20:32.230Z,23.28
2022-10-17T12:21:32.318Z,23.27
2022-10-17T12:22:31.440Z,23.10
2022-10-17T12:23:31.447Z,23.10
2022-10-17T12:24:31.383Z,23.02
2022-10-17T12:25:31.690Z,23.02
2022-10-17T12:26:31.359Z,22.95
2022-10-17T12:27:31.633Z,22.88
2022-10-17T12:28:31.346Z,22.83
2022-10-17T12:29:31.303Z,22.80
2022-10-17T12:30:31.319Z,22.77
2022-10-17T12:31:34.181Z,22.77
2022-10-17T12:32:46.954Z,22.75
2022-10-17T12:33:32.286Z,22.76
2022-10-17T12:34:31.286Z,22.79
2022-10-17T12:35:31.242Z,22.88
2022-10-17T12:36:31.269Z,22.95
2022-10-17T12:37:31.464Z,23.04
2022-10-17T12:38:31.202Z,23.16
2022-10-17T12:39:31.205Z,23.25
2022-10-17T12:40:31.314Z,23.35
2022-10-17T12:41:31.225Z,23.40
2022-10-17T12:42:31.377Z,23.38
2022-10-17T12:43:32.152Z,23.39
2022-10-17T12:44:34.899Z,23.38
2022-10-17T12:45:31.154Z,23.31
2022-10-17T12:46:31.152Z,23.23
2022-10-17T12:47:31.161Z,23.19
2022-10-17T12:48:31.104Z,23.17
2022-10-17T12:49:31.095Z,23.15
2022-10-17T12:50:34.803Z,23.12
2022-10-17T12:51:36.344Z,23.07
2022-10-17T12:52:32.111Z,22.97
2022-10-17T12:53:31.034Z,22.94
2022-10-17T12:54:37.896Z,22.94
2022-10-17T12:55:32.050Z,22.97
2022-10-17T12:56:31.011Z,22.97
2022-10-17T12:57:31.349Z,23.01
2022-10-17T12:58:31.005Z,23.05
2022-10-17T12:59:30.966Z,23.10
2022-10-17T13:00:31.075Z,23.12
2022-10-17T13:01:32.167Z,23.15
2022-10-17T13:02:31.787Z,23.25
2022-10-17T13:03:30.954Z,23.33
2022-10-17T13:04:30.945Z,23.35
2022-10-17T13:05:30.925Z,23.42
2022-10-17T13:06:30.901Z,23.48
2022-10-17T13:07:31.304Z,23.43